sensor_id;sensor_type;location;lat;lon;timestamp;pressure;altitude;pressure_sealevel;temperature;humidity
79028;BME280;68427;48.476;19.102;2023-08-17T00:00:29;97875.59;;;21.75;68.11
79028;BME280;68427;48.476;19.102;2023-08-17T00:02:55;97872.34;;;21.68;68.47
79028;BME280;68427;48.476;19.102;2023-08-17T00:05:21;97877.66;;;21.63;68.38
79028;BME280;68427;48.476;19.102;2023-08-17T00:07:46;97875.22;;;21.61;68.63
79028;BME280;68427;48.476;19.102;2023-08-17T00:10:12;97885.63;;;21.57;69.19
79028;BME280;68427;48.476;19.102;2023-08-17T00:12:39;97883.69;;;21.48;68.94
79028;BME280;68427;48.476;19.102;2023-08-17T00:15:06;97877.78;;;21.46;69.64
79028;BME280;68427;48.476;19.102;2023-08-17T00:17:31;97875.94;;;21.46;69.59
79028;BME280;68427;48.476;19.102;2023-08-17T00:19:57;97880.19;;;21.42;69.90
79028;BME280;68427;48.476;19.102;2023-08-17T00:22:23;97874.03;;;21.42;70.28
79028;BME280;68427;48.476;19.102;2023-08-17T00:24:49;97864.69;;;21.39;69.85
79028;BME280;68427;48.476;19.102;2023-08-17T00:27:14;97856.28;;;21.25;70.29
79028;BME280;68427;48.476;19.102;2023-08-17T00:29:41;97860.03;;;21.24;70.93
79028;BME280;68427;48.476;19.102;2023-08-17T00:32:07;97857.38;;;21.24;71.10
79028;BME280;68427;48.476;19.102;2023-08-17T00:34:33;97849.91;;;21.26;70.74
79028;BME280;68427;48.476;19.102;2023-08-17T00:36:58;97845.34;;;21.22;70.28
79028;BME280;68427;48.476;19.102;2023-08-17T00:39:24;97852.25;;;21.18;70.63
79028;BME280;68427;48.476;19.102;2023-08-17T00:41:50;97846.91;;;21.18;70.70
79028;BME280;68427;48.476;19.102;2023-08-17T00:44:15;97842.91;;;21.15;70.97
79028;BME280;68427;48.476;19.102;2023-08-17T00:46:43;97838.59;;;21.14;71.29
79028;BME280;68427;48.476;19.102;2023-08-17T00:49:10;97837.78;;;21.08;71.76
79028;BME280;68427;48.476;19.102;2023-08-17T00:51:36;97832.13;;;21.00;71.87
79028;BME280;68427;48.476;19.102;2023-08-17T00:54:02;97836.34;;;20.96;71.98
79028;BME280;68427;48.476;19.102;2023-08-17T00:56:29;97838.44;;;20.93;71.56
79028;BME280;68427;48.476;19.102;2023-08-17T00:58:55;97837.41;;;20.95;72.14
79028;BME280;68427;48.476;19.102;2023-08-17T01:01:22;97841.09;;;20.93;71.30
79028;BME280;68427;48.476;19.102;2023-08-17T01:03:49;97837.88;;;20.91;71.81
79028;BME280;68427;48.476;19.102;2023-08-17T01:06:15;97840.81;;;20.90;71.62
79028;BME280;68427;48.476;19.102;2023-08-17T01:08:42;97833.06;;;20.88;71.64
79028;BME280;68427;48.476;19.102;2023-08-17T01:11:14;97834.09;;;20.82;71.84
79028;BME280;68427;48.476;19.102;2023-08-17T01:13:49;97832.19;;;20.78;71.93
79028;BME280;68427;48.476;19.102;2023-08-17T01:16:23;97834.28;;;20.76;72.52
79028;BME280;68427;48.476;19.102;2023-08-17T01:18:51;97833.69;;;20.68;72.42
79028;BME280;68427;48.476;19.102;2023-08-17T01:21:21;97832.88;;;20.68;72.47
79028;BME280;68427;48.476;19.102;2023-08-17T01:23:50;97838.72;;;20.65;72.42
79028;BME280;68427;48.476;19.102;2023-08-17T01:26:16;97832.84;;;20.63;72.78
79028;BME280;68427;48.476;19.102;2023-08-17T01:28:43;97839.22;;;20.62;72.97
79028;BME280;68427;48.476;19.102;2023-08-17T01:31:11;97843.94;;;20.55;73.13
79028;BME280;68427;48.476;19.102;2023-08-17T01:33:44;97840.13;;;20.50;73.09
79028;BME280;68427;48.476;19.102;2023-08-17T01:36:18;97835.56;;;20.46;73.60
79028;BME280;68427;48.476;19.102;2023-08-17T01:38:46;97839.84;;;20.47;73.80
79028;BME280;68427;48.476;19.102;2023-08-17T01:41:15;97840.59;;;20.42;74.07
79028;BME280;68427;48.476;19.102;2023-08-17T01:43:41;97841.34;;;20.38;74.31
79028;BME280;68427;48.476;19.102;2023-08-17T01:46:13;97838.38;;;20.34;74.17
79028;BME280;68427;48.476;19.102;2023-08-17T01:48:38;97855.66;;;20.32;74.61
79028;BME280;68427;48.476;19.102;2023-08-17T01:51:04;97845.75;;;20.27;74.70
79028;BME280;68427;48.476;19.102;2023-08-17T01:53:30;97848.59;;;20.20;74.43
79028;BME280;68427;48.476;19.102;2023-08-17T01:55:55;97853.03;;;20.15;74.71
79028;BME280;68427;48.476;19.102;2023-08-17T01:58:22;97856.69;;;20.08;74.85
79028;BME280;68427;48.476;19.102;2023-08-17T02:00:48;97840.19;;;20.06;74.99
79028;BME280;68427;48.476;19.102;2023-08-17T02:03:14;97847.59;;;20.04;74.88
79028;BME280;68427;48.476;19.102;2023-08-17T02:05:44;97845.19;;;20.03;75.20
79028;BME280;68427;48.476;19.102;2023-08-17T02:08:09;97844.38;;;20.02;75.44
79028;BME280;68427;48.476;19.102;2023-08-17T02:10:36;97846.47;;;20.00;75.45
79028;BME280;68427;48.476;19.102;2023-08-17T02:13:01;97845.06;;;19.93;76.02
79028;BME280;68427;48.476;19.102;2023-08-17T02:15:28;97847.72;;;19.93;75.88
79028;BME280;68427;48.476;19.102;2023-08-17T02:17:54;97845.06;;;19.93;75.69
79028;BME280;68427;48.476;19.102;2023-08-17T02:20:20;97828.47;;;19.85;75.24
79028;BME280;68427;48.476;19.102;2023-08-17T02:22:45;97828.72;;;19.84;74.96
79028;BME280;68427;48.476;19.102;2023-08-17T02:25:11;97838.47;;;19.78;75.33
79028;BME280;68427;48.476;19.102;2023-08-17T02:27:37;97831.25;;;19.74;75.78
79028;BME280;68427;48.476;19.102;2023-08-17T02:30:03;97830.94;;;19.70;76.01
79028;BME280;68427;48.476;19.102;2023-08-17T02:32:30;97840.91;;;19.63;76.52
79028;BME280;68427;48.476;19.102;2023-08-17T02:34:56;97837.44;;;19.62;76.59
79028;BME280;68427;48.476;19.102;2023-08-17T02:37:21;97836.06;;;19.60;77.12
79028;BME280;68427;48.476;19.102;2023-08-17T02:39:47;97841.16;;;19.61;77.01
79028;BME280;68427;48.476;19.102;2023-08-17T02:42:13;97835.84;;;19.61;77.58
79028;BME280;68427;48.476;19.102;2023-08-17T02:44:38;97842.75;;;19.62;77.26
79028;BME280;68427;48.476;19.102;2023-08-17T02:47:05;97839.78;;;19.59;77.27
79028;BME280;68427;48.476;19.102;2023-08-17T02:49:32;97846.41;;;19.56;77.31
79028;BME280;68427;48.476;19.102;2023-08-17T02:51:58;97846.41;;;19.56;77.29
79028;BME280;68427;48.476;19.102;2023-08-17T02:54:23;97845.28;;;19.52;77.51
79028;BME280;68427;48.476;19.102;2023-08-17T02:56:49;97843.97;;;19.55;78.09
79028;BME280;68427;48.476;19.102;2023-08-17T02:59:15;97831.25;;;19.57;78.36
79028;BME280;68427;48.476;19.102;2023-08-17T03:01:40;97840.25;;;19.56;77.94
79028;BME280;68427;48.476;19.102;2023-08-17T03:04:06;97835.44;;;19.53;78.08
79028;BME280;68427;48.476;19.102;2023-08-17T03:06:33;97844.78;;;19.55;78.05
79028;BME280;68427;48.476;19.102;2023-08-17T03:08:59;97844.22;;;19.53;78.08
79028;BME280;68427;48.476;19.102;2023-08-17T03:11:24;97837.88;;;19.54;78.38
79028;BME280;68427;48.476;19.102;2023-08-17T03:13:50;97832.28;;;19.56;78.19
79028;BME280;68427;48.476;19.102;2023-08-17T03:16:16;97829.41;;;19.57;78.42
79028;BME280;68427;48.476;19.102;2023-08-17T03:18:41;97829.91;;;19.54;78.48
79028;BME280;68427;48.476;19.102;2023-08-17T03:21:08;97837.88;;;19.54;78.56
79028;BME280;68427;48.476;19.102;2023-08-17T03:23:35;97828.69;;;19.45;79.10
79028;BME280;68427;48.476;19.102;2023-08-17T03:26:01;97826.59;;;19.47;79.01
79028;BME280;68427;48.476;19.102;2023-08-17T03:28:27;97825.53;;;19.48;78.77
79028;BME280;68427;48.476;19.102;2023-08-17T03:30:54;97829.75;;;19.44;78.71
79028;BME280;68427;48.476;19.102;2023-08-17T03:33:20;97819.84;;;19.39;78.60
79028;BME280;68427;48.476;19.102;2023-08-17T03:35:46;97825.09;;;19.34;78.77
79028;BME280;68427;48.476;19.102;2023-08-17T03:38:12;97815.50;;;19.33;78.65
79028;BME280;68427;48.476;19.102;2023-08-17T03:40:39;97815.19;;;19.30;79.01
79028;BME280;68427;48.476;19.102;2023-08-17T03:43:04;97822.59;;;19.28;79.18
79028;BME280;68427;48.476;19.102;2023-08-17T03:45:30;97830.25;;;19.24;79.13
79028;BME280;68427;48.476;19.102;2023-08-17T03:47:56;97823.00;;;19.19;79.65
79028;BME280;68427;48.476;19.102;2023-08-17T03:50:22;97828.53;;;19.18;79.61
79028;BME280;68427;48.476;19.102;2023-08-17T03:52:47;97837.56;;;19.17;79.85
79028;BME280;68427;48.476;19.102;2023-08-17T03:55:13;97831.47;;;19.16;80.02
79028;BME280;68427;48.476;19.102;2023-08-17T03:57:40;97834.91;;;19.17;79.65
79028;BME280;68427;48.476;19.102;2023-08-17T04:00:07;97847.94;;;19.18;79.35
79028;BME280;68427;48.476;19.102;2023-08-17T04:02:33;97842.78;;;19.12;79.69
79028;BME280;68427;48.476;19.102;2023-08-17T04:04:59;97838.50;;;19.11;79.73
79028;BME280;68427;48.476;19.102;2023-08-17T04:07:24;97835.84;;;19.11;79.49
79028;BME280;68427;48.476;19.102;2023-08-17T04:09:50;97836.69;;;19.11;80.08
79028;BME280;68427;48.476;19.102;2023-08-17T04:12:16;97832.19;;;19.12;79.57
79028;BME280;68427;48.476;19.102;2023-08-17T04:14:43;97822.34;;;19.12;79.41
79028;BME280;68427;48.476;19.102;2023-08-17T04:17:08;97845.44;;;19.12;79.66
79028;BME280;68427;48.476;19.102;2023-08-17T04:19:34;97843.03;;;19.10;80.08
79028;BME280;68427;48.476;19.102;2023-08-17T04:22:00;97848.69;;;19.14;79.45
79028;BME280;68427;48.476;19.102;2023-08-17T04:24:25;97847.69;;;19.20;79.39
79028;BME280;68427;48.476;19.102;2023-08-17T04:26:51;97848.34;;;19.27;79.44
79028;BME280;68427;48.476;19.102;2023-08-17T04:29:16;97846.00;;;19.31;79.29
79028;BME280;68427;48.476;19.102;2023-08-17T04:31:44;97856.97;;;19.34;79.69
79028;BME280;68427;48.476;19.102;2023-08-17T04:34:11;97855.97;;;19.40;79.52
79028;BME280;68427;48.476;19.102;2023-08-17T04:36:36;97863.56;;;19.49;79.50
79028;BME280;68427;48.476;19.102;2023-08-17T04:39:02;97855.41;;;19.55;78.74
79028;BME280;68427;48.476;19.102;2023-08-17T04:41:29;97860.66;;;19.67;78.38
79028;BME280;68427;48.476;19.102;2023-08-17T04:43:55;97868.72;;;19.72;77.89
79028;BME280;68427;48.476;19.102;2023-08-17T04:46:21;97864.81;;;19.80;77.30
79028;BME280;68427;48.476;19.102;2023-08-17T04:48:48;97860.06;;;19.82;77.02
79028;BME280;68427;48.476;19.102;2023-08-17T04:51:15;97864.22;;;19.95;77.55
79028;BME280;68427;48.476;19.102;2023-08-17T04:53:41;97871.03;;;20.07;76.89
79028;BME280;68427;48.476;19.102;2023-08-17T04:56:06;97870.88;;;20.14;76.80
79028;BME280;68427;48.476;19.102;2023-08-17T04:58:32;97869.63;;;20.22;77.55
79028;BME280;68427;48.476;19.102;2023-08-17T05:00:59;97860.09;;;20.26;76.75
79028;BME280;68427;48.476;19.102;2023-08-17T05:03:24;97862.31;;;20.34;76.92
79028;BME280;68427;48.476;19.102;2023-08-17T05:05:53;97861.09;;;20.42;77.18
79028;BME280;68427;48.476;19.102;2023-08-17T05:08:19;97856.84;;;20.46;77.50
79028;BME280;68427;48.476;19.102;2023-08-17T05:10:45;97857.84;;;20.40;78.32
79028;BME280;68427;48.476;19.102;2023-08-17T05:13:10;97863.47;;;20.43;77.62
79028;BME280;68427;48.476;19.102;2023-08-17T05:15:36;97854.75;;;20.48;77.72
79028;BME280;68427;48.476;19.102;2023-08-17T05:18:02;97865.16;;;20.49;78.13
79028;BME280;68427;48.476;19.102;2023-08-17T05:20:27;97861.69;;;20.49;78.30
79028;BME280;68427;48.476;19.102;2023-08-17T05:22:54;97864.59;;;20.47;78.01
79028;BME280;68427;48.476;19.102;2023-08-17T05:25:20;97878.69;;;20.48;77.99
79028;BME280;68427;48.476;19.102;2023-08-17T05:27:47;97865.16;;;20.49;77.20
79028;BME280;68427;48.476;19.102;2023-08-17T05:30:14;97878.94;;;20.46;77.96
79028;BME280;68427;48.476;19.102;2023-08-17T05:32:40;97864.34;;;20.49;77.97
79028;BME280;68427;48.476;19.102;2023-08-17T05:35:06;97871.50;;;20.48;76.92
79028;BME280;68427;48.476;19.102;2023-08-17T05:37:32;97870.16;;;20.46;76.59
79028;BME280;68427;48.476;19.102;2023-08-17T05:39:59;97879.19;;;20.45;77.65
79028;BME280;68427;48.476;19.102;2023-08-17T05:42:25;97880.50;;;20.42;77.59
79028;BME280;68427;48.476;19.102;2023-08-17T05:44:51;97879.50;;;20.48;78.91
79028;BME280;68427;48.476;19.102;2023-08-17T05:47:17;97881.78;;;20.57;77.87
79028;BME280;68427;48.476;19.102;2023-08-17T05:49:44;97872.22;;;20.61;76.45
79028;BME280;68427;48.476;19.102;2023-08-17T05:52:11;97874.41;;;20.69;76.22
79028;BME280;68427;48.476;19.102;2023-08-17T05:54:38;97881.97;;;20.77;77.39
79028;BME280;68427;48.476;19.102;2023-08-17T05:57:05;97869.75;;;20.81;76.65
79028;BME280;68427;48.476;19.102;2023-08-17T05:59:31;97866.59;;;20.84;76.60
79028;BME280;68427;48.476;19.102;2023-08-17T06:01:56;97877.78;;;20.86;76.66
79028;BME280;68427;48.476;19.102;2023-08-17T06:04:22;97873.03;;;20.88;76.97
79028;BME280;68427;48.476;19.102;2023-08-17T06:06:48;97874.41;;;20.96;76.07
79028;BME280;68427;48.476;19.102;2023-08-17T06:09:13;97875.81;;;21.04;75.48
79028;BME280;68427;48.476;19.102;2023-08-17T06:11:40;97874.13;;;21.20;74.91
79028;BME280;68427;48.476;19.102;2023-08-17T06:14:07;97874.16;;;21.25;74.68
79028;BME280;68427;48.476;19.102;2023-08-17T06:16:32;97868.97;;;21.40;73.97
79028;BME280;68427;48.476;19.102;2023-08-17T06:18:58;97874.91;;;21.52;73.42
79028;BME280;68427;48.476;19.102;2023-08-17T06:21:24;97878.09;;;21.49;72.77
79028;BME280;68427;48.476;19.102;2023-08-17T06:23:50;97877.31;;;21.54;72.68
79028;BME280;68427;48.476;19.102;2023-08-17T06:26:15;97871.59;;;21.72;72.28
79028;BME280;68427;48.476;19.102;2023-08-17T06:28:41;97867.16;;;21.93;71.71
79028;BME280;68427;48.476;19.102;2023-08-17T06:31:08;97866.13;;;21.99;71.72
79028;BME280;68427;48.476;19.102;2023-08-17T06:33:34;97870.66;;;22.04;70.88
79028;BME280;68427;48.476;19.102;2023-08-17T06:35:59;97871.00;;;22.13;71.07
79028;BME280;68427;48.476;19.102;2023-08-17T06:38:25;97875.53;;;22.12;70.70
79028;BME280;68427;48.476;19.102;2023-08-17T06:40:51;97866.69;;;22.12;71.81
79028;BME280;68427;48.476;19.102;2023-08-17T06:43:18;97868.31;;;22.13;71.40
79028;BME280;68427;48.476;19.102;2023-08-17T06:45:44;97866.19;;;22.10;71.65
79028;BME280;68427;48.476;19.102;2023-08-17T06:48:11;97859.53;;;22.12;71.15
79028;BME280;68427;48.476;19.102;2023-08-17T06:50:36;97861.38;;;22.17;72.03
79028;BME280;68427;48.476;19.102;2023-08-17T06:53:02;97867.84;;;22.21;71.93
79028;BME280;68427;48.476;19.102;2023-08-17T06:55:28;97876.41;;;22.23;71.61
79028;BME280;68427;48.476;19.102;2023-08-17T06:57:54;97877.94;;;22.19;70.71
79028;BME280;68427;48.476;19.102;2023-08-17T07:00:20;97875.00;;;22.15;70.62
79028;BME280;68427;48.476;19.102;2023-08-17T07:02:46;97876.06;;;22.14;70.58
79028;BME280;68427;48.476;19.102;2023-08-17T07:05:15;97873.91;;;22.11;70.66
79028;BME280;68427;48.476;19.102;2023-08-17T07:07:40;97876.31;;;22.08;69.14
79028;BME280;68427;48.476;19.102;2023-08-17T07:10:08;97873.38;;;22.09;69.18
79028;BME280;68427;48.476;19.102;2023-08-17T07:12:33;97878.69;;;22.09;68.43
79028;BME280;68427;48.476;19.102;2023-08-17T07:14:59;97880.16;;;22.22;69.26
79028;BME280;68427;48.476;19.102;2023-08-17T07:17:25;97878.31;;;22.33;67.71
79028;BME280;68427;48.476;19.102;2023-08-17T07:19:50;97875.38;;;22.39;67.72
79028;BME280;68427;48.476;19.102;2023-08-17T07:22:17;97873.56;;;22.45;68.32
79028;BME280;68427;48.476;19.102;2023-08-17T07:24:43;97883.47;;;22.55;67.38
79028;BME280;68427;48.476;19.102;2023-08-17T07:27:08;97885.88;;;22.72;66.62
79028;BME280;68427;48.476;19.102;2023-08-17T07:29:34;97890.22;;;22.93;66.37
79028;BME280;68427;48.476;19.102;2023-08-17T07:32:00;97884.91;;;23.08;65.08
79028;BME280;68427;48.476;19.102;2023-08-17T07:34:27;97881.44;;;23.28;64.54
79028;BME280;68427;48.476;19.102;2023-08-17T07:36:52;97888.38;;;23.40;65.00
79028;BME280;68427;48.476;19.102;2023-08-17T07:39:19;97890.56;;;23.38;64.28
79028;BME280;68427;48.476;19.102;2023-08-17T07:41:45;97896.16;;;23.41;64.06
79028;BME280;68427;48.476;19.102;2023-08-17T07:44:10;97889.22;;;23.45;63.32
79028;BME280;68427;48.476;19.102;2023-08-17T07:46:36;97893.72;;;23.40;64.75
79028;BME280;68427;48.476;19.102;2023-08-17T07:49:03;97894.81;;;23.54;64.82
79028;BME280;68427;48.476;19.102;2023-08-17T07:51:29;97890.78;;;23.62;63.60
79028;BME280;68427;48.476;19.102;2023-08-17T07:53:57;97888.38;;;23.65;62.96
79028;BME280;68427;48.476;19.102;2023-08-17T07:56:24;97884.09;;;23.64;63.00
79028;BME280;68427;48.476;19.102;2023-08-17T07:58:50;97885.97;;;23.64;63.28
79028;BME280;68427;48.476;19.102;2023-08-17T08:01:15;97886.75;;;23.64;63.68
79028;BME280;68427;48.476;19.102;2023-08-17T08:03:41;97890.25;;;23.55;63.94
79028;BME280;68427;48.476;19.102;2023-08-17T08:06:07;97892.13;;;23.49;62.54
79028;BME280;68427;48.476;19.102;2023-08-17T08:08:33;97892.94;;;23.44;62.66
79028;BME280;68427;48.476;19.102;2023-08-17T08:10:58;97894.56;;;23.45;62.71
79028;BME280;68427;48.476;19.102;2023-08-17T08:13:26;97890.81;;;23.36;63.19
79028;BME280;68427;48.476;19.102;2023-08-17T08:15:51;97899.38;;;23.38;64.83
79028;BME280;68427;48.476;19.102;2023-08-17T08:18:17;97900.16;;;23.39;65.05
79028;BME280;68427;48.476;19.102;2023-08-17T08:20:43;97905.25;;;23.35;64.79
79028;BME280;68427;48.476;19.102;2023-08-17T08:23:09;97900.16;;;23.39;64.90
79028;BME280;68427;48.476;19.102;2023-08-17T08:25:34;97898.28;;;23.44;65.04
79028;BME280;68427;48.476;19.102;2023-08-17T08:28:00;97892.66;;;23.56;64.40
79028;BME280;68427;48.476;19.102;2023-08-17T08:30:27;97885.19;;;23.63;64.05
79028;BME280;68427;48.476;19.102;2023-08-17T08:32:53;97890.50;;;23.68;62.45
79028;BME280;68427;48.476;19.102;2023-08-17T08:35:21;97884.38;;;23.63;62.44
79028;BME280;68427;48.476;19.102;2023-08-17T08:37:47;97881.69;;;23.68;61.64
79028;BME280;68427;48.476;19.102;2023-08-17T08:40:14;97883.59;;;23.73;61.46
79028;BME280;68427;48.476;19.102;2023-08-17T08:42:42;97878.19;;;23.67;61.27
79028;BME280;68427;48.476;19.102;2023-08-17T08:45:08;97880.38;;;23.55;62.04
79028;BME280;68427;48.476;19.102;2023-08-17T08:47:36;97881.97;;;23.56;62.94
79028;BME280;68427;48.476;19.102;2023-08-17T08:50:04;97880.88;;;23.62;62.79
79028;BME280;68427;48.476;19.102;2023-08-17T08:52:33;97882.19;;;23.70;64.38
79028;BME280;68427;48.476;19.102;2023-08-17T08:55:05;97879.81;;;23.84;64.68
79028;BME280;68427;48.476;19.102;2023-08-17T08:57:34;97877.38;;;23.92;63.85
79028;BME280;68427;48.476;19.102;2023-08-17T09:00:01;97878.16;;;24.03;63.84
79028;BME280;68427;48.476;19.102;2023-08-17T09:02:27;97877.31;;;24.18;62.98
79028;BME280;68427;48.476;19.102;2023-08-17T09:04:55;97879.13;;;24.33;63.22
79028;BME280;68427;48.476;19.102;2023-08-17T09:07:22;97867.84;;;24.41;61.87
79028;BME280;68427;48.476;19.102;2023-08-17T09:09:48;97871.22;;;24.62;60.16
79028;BME280;68427;48.476;19.102;2023-08-17T09:12:13;97871.66;;;24.79;59.56
79028;BME280;68427;48.476;19.102;2023-08-17T09:14:39;97867.47;;;25.02;59.19
79028;BME280;68427;48.476;19.102;2023-08-17T09:17:06;97869.78;;;25.19;57.74
79028;BME280;68427;48.476;19.102;2023-08-17T09:19:32;97867.75;;;25.70;57.24
79028;BME280;68427;48.476;19.102;2023-08-17T09:22:00;97862.63;;;26.83;54.71
79028;BME280;68427;48.476;19.102;2023-08-17T09:24:33;97863.75;;;28.50;50.11
79028;BME280;68427;48.476;19.102;2023-08-17T09:26:59;97855.47;;;28.82;49.02
79028;BME280;68427;48.476;19.102;2023-08-17T09:29:25;97848.81;;;30.45;45.68
79028;BME280;68427;48.476;19.102;2023-08-17T09:31:51;97841.03;;;31.21;43.30
79028;BME280;68427;48.476;19.102;2023-08-17T09:34:18;97846.19;;;31.70;40.60
79028;BME280;68427;48.476;19.102;2023-08-17T09:36:45;97836.44;;;34.04;36.97
79028;BME280;68427;48.476;19.102;2023-08-17T09:39:15;97835.59;;;35.65;34.51
79028;BME280;68427;48.476;19.102;2023-08-17T09:41:41;97825.69;;;35.28;33.59
79028;BME280;68427;48.476;19.102;2023-08-17T09:44:07;97824.47;;;34.70;34.66
79028;BME280;68427;48.476;19.102;2023-08-17T09:46:32;97817.47;;;34.56;35.09
79028;BME280;68427;48.476;19.102;2023-08-17T09:48:58;97821.31;;;35.24;32.47
79028;BME280;68427;48.476;19.102;2023-08-17T09:51:24;97808.81;;;35.86;33.13
79028;BME280;68427;48.476;19.102;2023-08-17T09:53:52;97802.63;;;36.21;31.56
79028;BME280;68427;48.476;19.102;2023-08-17T09:56:21;97807.47;;;36.86;31.08
79028;BME280;68427;48.476;19.102;2023-08-17T09:58:47;97800.22;;;36.94;31.39
79028;BME280;68427;48.476;19.102;2023-08-17T10:01:13;97802.59;;;35.54;32.29
79028;BME280;68427;48.476;19.102;2023-08-17T10:03:42;97803.81;;;34.16;34.08
79028;BME280;68427;48.476;19.102;2023-08-17T10:06:09;97793.22;;;33.16;36.71
79028;BME280;68427;48.476;19.102;2023-08-17T10:08:36;97799.88;;;32.43;38.79
79028;BME280;68427;48.476;19.102;2023-08-17T10:11:06;97804.66;;;31.87;40.77
79028;BME280;68427;48.476;19.102;2023-08-17T10:13:39;97801.88;;;31.28;41.75
79028;BME280;68427;48.476;19.102;2023-08-17T10:16:13;97794.56;;;30.24;43.77
79028;BME280;68427;48.476;19.102;2023-08-17T10:18:45;97805.38;;;30.24;43.96
79028;BME280;68427;48.476;19.102;2023-08-17T10:21:18;97809.47;;;30.04;43.72
79028;BME280;68427;48.476;19.102;2023-08-17T10:23:46;97804.25;;;30.07;43.98
79028;BME280;68427;48.476;19.102;2023-08-17T10:26:12;97802.59;;;29.89;44.93
79028;BME280;68427;48.476;19.102;2023-08-17T10:28:40;97803.50;;;29.76;45.57
79028;BME280;68427;48.476;19.102;2023-08-17T10:31:08;97813.91;;;29.60;45.33
79028;BME280;68427;48.476;19.102;2023-08-17T10:33:34;97807.50;;;29.78;44.26
79028;BME280;68427;48.476;19.102;2023-08-17T10:36:01;97809.78;;;29.62;43.83
79028;BME280;68427;48.476;19.102;2023-08-17T10:38:27;97814.38;;;29.62;44.15
79028;BME280;68427;48.476;19.102;2023-08-17T10:41:09;97815.25;;;29.40;46.16
79028;BME280;68427;48.476;19.102;2023-08-17T10:43:55;97806.56;;;29.51;46.65
79028;BME280;68427;48.476;19.102;2023-08-17T10:46:21;97803.03;;;29.74;45.50
79028;BME280;68427;48.476;19.102;2023-08-17T10:48:47;97803.06;;;29.91;45.96
79028;BME280;68427;48.476;19.102;2023-08-17T10:51:12;97805.50;;;30.10;45.82
79028;BME280;68427;48.476;19.102;2023-08-17T10:53:39;97803.78;;;30.23;43.77
79028;BME280;68427;48.476;19.102;2023-08-17T10:56:12;97800.28;;;30.22;42.84
79028;BME280;68427;48.476;19.102;2023-08-17T10:58:38;97804.78;;;30.44;42.40
79028;BME280;68427;48.476;19.102;2023-08-17T11:01:05;97793.19;;;30.61;41.56
79028;BME280;68427;48.476;19.102;2023-08-17T11:03:30;97796.19;;;30.77;43.12
79028;BME280;68427;48.476;19.102;2023-08-17T11:05:57;97792.69;;;31.03;40.75
79028;BME280;68427;48.476;19.102;2023-08-17T11:08:23;97790.72;;;31.68;39.89
79028;BME280;68427;48.476;19.102;2023-08-17T11:11:02;97788.53;;;31.99;38.35
79028;BME280;68427;48.476;19.102;2023-08-17T11:13:29;97788.56;;;32.20;38.56
79028;BME280;68427;48.476;19.102;2023-08-17T11:15:57;97789.72;;;33.28;37.08
79028;BME280;68427;48.476;19.102;2023-08-17T11:18:25;97785.75;;;35.04;33.11
79028;BME280;68427;48.476;19.102;2023-08-17T11:20:51;97776.53;;;36.04;30.46
79028;BME280;68427;48.476;19.102;2023-08-17T11:23:17;97775.00;;;35.24;33.21
79028;BME280;68427;48.476;19.102;2023-08-17T11:25:43;97774.16;;;33.74;34.42
79028;BME280;68427;48.476;19.102;2023-08-17T11:28:09;97762.97;;;32.72;36.40
79028;BME280;68427;48.476;19.102;2023-08-17T11:30:35;97770.88;;;32.77;37.32
79028;BME280;68427;48.476;19.102;2023-08-17T11:33:04;97759.00;;;31.30;38.20
79028;BME280;68427;48.476;19.102;2023-08-17T11:35:32;97758.34;;;30.68;39.17
79028;BME280;68427;48.476;19.102;2023-08-17T11:37:57;97758.47;;;30.11;39.81
79028;BME280;68427;48.476;19.102;2023-08-17T11:40:24;97763.91;;;29.31;40.90
79028;BME280;68427;48.476;19.102;2023-08-17T11:42:51;97761.22;;;29.31;40.96
79028;BME280;68427;48.476;19.102;2023-08-17T11:45:17;97761.81;;;28.97;42.51
79028;BME280;68427;48.476;19.102;2023-08-17T11:47:43;97761.91;;;28.92;41.74
79028;BME280;68427;48.476;19.102;2023-08-17T11:50:10;97773.78;;;28.59;42.11
79028;BME280;68427;48.476;19.102;2023-08-17T11:52:38;97775.97;;;28.43;42.19
79028;BME280;68427;48.476;19.102;2023-08-17T11:55:05;97764.88;;;28.22;42.74
79028;BME280;68427;48.476;19.102;2023-08-17T11:57:31;97772.31;;;28.39;42.40
79028;BME280;68427;48.476;19.102;2023-08-17T11:59:58;97771.91;;;28.46;42.96
79028;BME280;68427;48.476;19.102;2023-08-17T12:02:24;97772.94;;;28.59;43.39
79028;BME280;68427;48.476;19.102;2023-08-17T12:04:50;97764.56;;;28.60;42.97
79028;BME280;68427;48.476;19.102;2023-08-17T12:07:16;97772.22;;;28.31;42.97
79028;BME280;68427;48.476;19.102;2023-08-17T12:09:43;97770.69;;;28.38;44.12
79028;BME280;68427;48.476;19.102;2023-08-17T12:12:10;97764.41;;;28.57;43.17
79028;BME280;68427;48.476;19.102;2023-08-17T12:14:36;97758.94;;;28.71;42.30
79028;BME280;68427;48.476;19.102;2023-08-17T12:17:02;97754.09;;;28.81;43.58
79028;BME280;68427;48.476;19.102;2023-08-17T12:19:29;97744.38;;;29.03;42.50
79028;BME280;68427;48.476;19.102;2023-08-17T12:21:55;97742.97;;;29.37;42.93
79028;BME280;68427;48.476;19.102;2023-08-17T12:24:23;97738.59;;;29.10;42.34
79028;BME280;68427;48.476;19.102;2023-08-17T12:26:50;97740.25;;;29.28;41.66
79028;BME280;68427;48.476;19.102;2023-08-17T12:29:16;97730.22;;;29.20;41.21
79028;BME280;68427;48.476;19.102;2023-08-17T12:31:42;97735.13;;;29.18;41.09
79028;BME280;68427;48.476;19.102;2023-08-17T12:34:07;97731.09;;;29.06;41.47
79028;BME280;68427;48.476;19.102;2023-08-17T12:36:33;97727.97;;;28.91;41.63
79028;BME280;68427;48.476;19.102;2023-08-17T12:39:00;97728.97;;;29.26;42.36
79028;BME280;68427;48.476;19.102;2023-08-17T12:41:26;97724.13;;;29.45;40.80
79028;BME280;68427;48.476;19.102;2023-08-17T12:43:53;97720.66;;;29.54;41.51
79028;BME280;68427;48.476;19.102;2023-08-17T12:46:19;97719.56;;;29.55;41.64